createdAt,value
2018-10-06T00:01:29.570Z,69.08
2018-10-06T00:03:57.994Z,69.52
2018-10-06T00:06:26.410Z,69.33
2018-10-06T00:08:54.938Z,69.39
2018-10-06T00:11:23.394Z,69.87
2018-10-06T00:13:51.806Z,70.17
2018-10-06T00:16:20.394Z,70.04
2018-10-06T00:18:48.878Z,70.41
2018-10-06T00:21:17.351Z,70.51
2018-10-06T00:23:46.113Z,70.59
2018-10-06T00:26:14.577Z,70.40
2018-10-06T00:28:42.966Z,70.71
2018-10-06T00:31:11.854Z,70.47
2018-10-06T00:33:40.299Z,70.41
2018-10-06T00:36:08.859Z,70.43
2018-10-06T00:38:37.438Z,70.58
2018-10-06T00:41:06.122Z,70.59
2018-10-06T00:43:34.534Z,70.53
2018-10-06T00:46:03.658Z,70.62
2018-10-06T00:48:32.527Z,70.56
2018-10-06T00:51:00.934Z,70.77
2018-10-06T00:53:30.035Z,71.18
2018-10-06T00:55:58.507Z,71.40
2018-10-06T00:58:27.031Z,71.14
2018-10-06T01:00:55.526Z,71.32
2018-10-06T01:03:23.961Z,71.63
2018-10-06T01:05:52.442Z,71.54
2018-10-06T01:08:21.225Z,71.59
2018-10-06T01:10:49.630Z,71.67
2018-10-06T01:13:18.103Z,71.90
2018-10-06T01:15:46.613Z,71.64
2018-10-06T01:18:15.067Z,71.54
2018-10-06T01:20:43.486Z,71.49
2018-10-06T01:23:12.110Z,71.50
2018-10-06T01:25:40.606Z,71.65
2018-10-06T01:28:09.035Z,71.59
2018-10-06T01:30:37.846Z,71.69
2018-10-06T01:33:06.771Z,72.09
2018-10-06T01:35:35.192Z,72.21
2018-10-06T01:38:03.899Z,72.43
2018-10-06T01:40:32.718Z,72.36
2018-10-06T01:43:01.135Z,72.36
2018-10-06T01:45:29.966Z,72.47
2018-10-06T01:47:58.386Z,72.46
2018-10-06T01:50:26.935Z,72.57
2018-10-06T01:52:55.717Z,72.58
2018-10-06T01:55:24.149Z,73.01
2018-10-06T01:57:52.565Z,72.76
2018-10-06T02:00:21.307Z,72.92
2018-10-06T02:02:49.756Z,73.13
2018-10-06T02:05:18.170Z,73.23
2018-10-06T02:07:46.715Z,72.83
2018-10-06T02:10:15.154Z,73.06
2018-10-06T02:12:43.782Z,73.12
2018-10-06T02:15:12.650Z,73.25
2018-10-06T02:17:41.080Z,72.93
2018-10-06T02:20:09.610Z,73.57
2018-10-06T02:22:38.094Z,73.33
2018-10-06T02:25:07.011Z,73.44
2018-10-06T02:27:35.468Z,73.50
2018-10-06T02:30:04.192Z,73.42
2018-10-06T02:32:32.620Z,73.81
2018-10-06T02:35:01.342Z,73.87
2018-10-06T02:37:29.975Z,73.84
2018-10-06T02:39:58.446Z,73.88
2018-10-06T02:42:26.862Z,73.67
2018-10-06T02:44:55.648Z,73.56
2018-10-06T02:47:24.098Z,74.10
2018-10-06T02:49:52.528Z,73.58
2018-10-06T02:52:21.402Z,73.65
2018-10-06T02:54:49.838Z,73.91
2018-10-06T02:57:18.366Z,73.58
2018-10-06T02:59:46.858Z,73.72
2018-10-06T03:02:15.815Z,74.01
2018-10-06T03:04:44.213Z,73.47
2018-10-06T03:07:13.506Z,73.70
2018-10-06T03:09:41.919Z,73.65
2018-10-06T03:12:10.325Z,73.78
2018-10-06T03:14:38.767Z,73.86
2018-10-06T03:17:07.302Z,73.81
2018-10-06T03:19:35.711Z,73.86
2018-10-06T03:22:04.243Z,73.96
2018-10-06T03:24:33.007Z,74.12
2018-10-06T03:27:01.467Z,73.63
2018-10-06T03:29:29.938Z,73.40
2018-10-06T03:31:58.364Z,73.53
2018-10-06T03:34:26.779Z,73.62
2018-10-06T03:36:55.263Z,73.58
2018-10-06T03:39:23.678Z,73.55
2018-10-06T03:41:52.081Z,73.55
2018-10-06T03:44:20.711Z,73.77
2018-10-06T03:46:49.177Z,73.47
2018-10-06T03:49:17.567Z,73.50
2018-10-06T03:51:46.059Z,73.25
2018-10-06T03:54:14.627Z,73.63
2018-10-06T03:56:44.038Z,73.34
2018-10-06T03:59:13.146Z,73.37
2018-10-06T04:01:41.682Z,73.25
2018-10-06T04:04:10.491Z,73.31
2018-10-06T04:06:39.037Z,73.17
2018-10-06T04:09:08.835Z,73.09
2018-10-06T04:11:37.435Z,73.01
2018-10-06T04:14:06.491Z,73.29
2018-10-06T04:16:34.919Z,73.08
2018-10-06T04:19:03.441Z,73.37
2018-10-06T04:21:41.826Z,73.07
2018-10-06T04:24:10.226Z,73.01
2018-10-06T04:26:38.674Z,73.08
2018-10-06T04:29:07.279Z,73.17
2018-10-06T04:31:35.711Z,72.96
2018-10-06T04:34:04.134Z,73.12
2018-10-06T04:36:32.663Z,73.17
2018-10-06T04:39:01.116Z,73.04
2018-10-06T04:41:29.907Z,73.31
2018-10-06T04:43:58.536Z,73.27
2018-10-06T04:46:27.235Z,73.31
2018-10-06T04:48:55.658Z,73.30
2018-10-06T04:51:24.266Z,73.38
2018-10-06T04:53:52.702Z,73.14
2018-10-06T04:56:21.393Z,73.50
2018-10-06T04:58:50.190Z,73.52
2018-10-06T05:01:18.582Z,73.73
2018-10-06T05:03:47.124Z,73.31
2018-10-06T05:06:15.760Z,73.71
2018-10-06T05:08:44.156Z,73.40
2018-10-06T05:11:12.759Z,73.62
2018-10-06T05:13:41.285Z,73.53
2018-10-06T05:16:09.707Z,73.55
2018-10-06T05:18:38.567Z,73.67
2018-10-06T05:21:07.434Z,73.71
2018-10-06T05:23:35.942Z,73.91
2018-10-06T05:26:04.322Z,73.75
2018-10-06T05:28:33.186Z,73.65
2018-10-06T05:31:01.591Z,73.56
2018-10-06T05:33:30.059Z,73.64
2018-10-06T05:35:58.592Z,73.83
2018-10-06T05:38:27.045Z,73.80
2018-10-06T05:40:55.455Z,73.72
2018-10-06T05:43:23.974Z,73.90
2018-10-06T05:45:52.390Z,74.16
2018-10-06T05:48:20.785Z,74.22
2018-10-06T05:50:49.626Z,74.04
2018-10-06T05:53:18.046Z,74.33
2018-10-06T05:55:46.450Z,73.84
2018-10-06T05:58:15.274Z,73.88
2018-10-06T06:00:43.683Z,74.38
2018-10-06T06:03:12.244Z,74.18
2018-10-06T06:05:40.767Z,74.34
2018-10-06T06:08:09.370Z,74.34
2018-10-06T06:10:37.755Z,74.09
2018-10-06T06:13:06.483Z,74.24
2018-10-06T06:15:34.949Z,74.34
2018-10-06T06:18:03.343Z,74.50
2018-10-06T06:20:32.543Z,73.85
2018-10-06T06:23:00.963Z,74.05
2018-10-06T06:25:29.375Z,74.25
2018-10-06T06:27:57.991Z,74.11
2018-10-06T06:30:26.422Z,74.19
2018-10-06T06:32:54.866Z,74.37
2018-10-06T06:35:23.835Z,74.35
2018-10-06T06:37:52.283Z,74.28
2018-10-06T06:40:20.678Z,74.00
2018-10-06T06:42:49.548Z,74.12
2018-10-06T06:45:17.950Z,74.15
2018-10-06T06:47:46.380Z,74.39
2018-10-06T06:50:15.319Z,74.02
2018-10-06T06:52:43.746Z,74.35
2018-10-06T06:55:12.202Z,74.19
2018-10-06T06:57:40.820Z,74.19
2018-10-06T07:00:09.684Z,74.02
2018-10-06T07:02:38.218Z,74.15
2018-10-06T07:05:07.122Z,73.84
2018-10-06T07:07:35.555Z,74.08
2018-10-06T07:10:04.115Z,74.12
2018-10-06T07:12:33.156Z,73.79
2018-10-06T07:15:01.528Z,73.94
2018-10-06T07:17:30.011Z,73.64
2018-10-06T07:19:58.554Z,73.33
2018-10-06T07:22:26.960Z,73.37
2018-10-06T07:24:55.371Z,73.41
2018-10-06T07:27:24.282Z,73.53
2018-10-06T07:29:52.735Z,73.54
2018-10-06T07:32:21.166Z,73.25
2018-10-06T07:34:50.022Z,73.23
2018-10-06T07:37:18.463Z,73.03
2018-10-06T07:39:46.878Z,72.65
2018-10-06T07:42:15.793Z,72.57
2018-10-06T07:44:44.274Z,72.60
2018-10-06T07:47:12.730Z,72.72
2018-10-06T07:49:41.284Z,72.70
2018-10-06T07:52:09.715Z,72.78
2018-10-06T07:54:38.204Z,72.86
2018-10-06T07:57:06.978Z,72.29
2018-10-06T07:59:35.387Z,72.42
2018-10-06T08:02:04.014Z,72.24
2018-10-06T08:04:33.340Z,71.96
2018-10-06T08:07:01.792Z,71.36
2018-10-06T08:09:30.215Z,70.94
2018-10-06T08:11:58.862Z,70.83
2018-10-06T08:14:27.276Z,70.85
2018-10-06T08:16:55.693Z,70.94
2018-10-06T08:19:24.262Z,71.39
2018-10-06T08:21:52.707Z,71.00
2018-10-06T08:24:21.147Z,70.75
2018-10-06T08:26:49.756Z,70.56
2018-10-06T08:29:18.159Z,70.85
2018-10-06T08:31:46.578Z,70.10
2018-10-06T08:34:15.074Z,69.48
2018-10-06T08:36:43.551Z,68.56
2018-10-06T08:39:11.997Z,67.95
2018-10-06T08:41:40.536Z,68.18
2018-10-06T08:44:08.999Z,68.28
2018-10-06T08:46:37.410Z,67.95
2018-10-06T08:49:05.939Z,67.50
2018-10-06T08:51:34.341Z,66.29
2018-10-06T08:54:02.779Z,66.18
2018-10-06T08:56:31.463Z,65.56
2018-10-06T08:58:59.723Z,63.93
2018-10-06T09:01:28.123Z,62.62
2018-10-06T09:03:57.183Z,61.92
2018-10-06T09:06:25.962Z,59.94
2018-10-06T09:08:54.447Z,58.60
2018-10-06T09:11:23.023Z,59.02
2018-10-06T09:13:51.639Z,57.88
2018-10-06T09:16:20.171Z,58.05
2018-10-06T09:18:49.304Z,58.69
2018-10-06T09:21:17.748Z,58.76
2018-10-06T09:23:46.140Z,58.92
2018-10-06T09:26:14.904Z,58.98
2018-10-06T09:28:43.327Z,59.16
2018-10-06T09:31:11.727Z,59.40
2018-10-06T09:33:40.268Z,59.41
2018-10-06T09:36:08.675Z,59.04
2018-10-06T09:38:37.096Z,58.96
2018-10-06T09:41:05.731Z,59.04
2018-10-06T09:43:34.135Z,59.44
2018-10-06T09:46:02.577Z,59.29
2018-10-06T09:48:31.387Z,58.99
2018-10-06T09:50:59.782Z,58.98
2018-10-06T09:53:28.179Z,58.87
2018-10-06T09:55:56.851Z,58.05
2018-10-06T09:58:25.250Z,57.90
2018-10-06T10:00:58.956Z,58.27
2018-10-06T10:03:32.550Z,57.89
2018-10-06T10:06:01.379Z,57.36
2018-10-06T10:08:29.799Z,56.89
2018-10-06T10:10:58.251Z,55.28
2018-10-06T10:13:26.949Z,55.02
2018-10-06T10:15:56.379Z,55.23
2018-10-06T10:18:24.966Z,55.05
2018-10-06T10:20:53.536Z,54.62
2018-10-06T10:23:22.075Z,54.52
2018-10-06T10:25:50.615Z,54.62
2018-10-06T10:28:19.305Z,54.46
2018-10-06T10:30:47.907Z,53.61
2018-10-06T10:33:16.303Z,53.64
2018-10-06T10:35:45.001Z,53.70
2018-10-06T10:38:13.420Z,54.22
2018-10-06T10:40:41.855Z,54.33
2018-10-06T10:43:10.757Z,54.51
2018-10-06T10:45:39.183Z,54.66
2018-10-06T10:48:07.649Z,54.56
2018-10-06T10:50:37.264Z,55.05
2018-10-06T10:53:05.779Z,54.95
2018-10-06T10:55:34.198Z,55.40
2018-10-06T10:58:02.854Z,55.20
2018-10-06T11:00:31.323Z,54.80
2018-10-06T11:02:59.691Z,54.56
2018-10-06T11:05:28.617Z,54.19
2018-10-06T11:07:57.171Z,53.84
2018-10-06T11:10:25.578Z,53.82
2018-10-06T11:12:54.354Z,53.91
2018-10-06T11:15:22.779Z,54.25
2018-10-06T11:17:51.335Z,54.17
2018-10-06T11:20:20.084Z,54.47
2018-10-06T11:22:48.474Z,53.89
2018-10-06T11:25:16.919Z,54.03
2018-10-06T11:27:45.848Z,53.87
2018-10-06T11:30:14.279Z,53.97
2018-10-06T11:32:42.747Z,53.98
2018-10-06T11:35:11.674Z,53.74
2018-10-06T11:37:40.197Z,53.50
2018-10-06T11:40:08.782Z,53.80
2018-10-06T11:42:37.658Z,52.98
2018-10-06T11:45:06.110Z,53.58
2018-10-06T11:47:34.507Z,53.36
2018-10-06T11:50:03.496Z,53.30
2018-10-06T11:52:31.931Z,53.61
2018-10-06T11:55:00.443Z,53.78
2018-10-06T11:57:29.139Z,54.18
2018-10-06T11:59:57.646Z,53.96
2018-10-06T12:02:26.031Z,54.22
2018-10-06T12:04:54.731Z,54.22
2018-10-06T12:07:23.146Z,54.17
2018-10-06T12:09:51.873Z,54.35
2018-10-06T12:12:20.645Z,54.63
2018-10-06T12:14:49.059Z,55.04
2018-10-06T12:17:17.466Z,54.48
2018-10-06T12:19:46.070Z,54.81
2018-10-06T12:22:14.493Z,54.97
2018-10-06T12:24:42.930Z,54.90
2018-10-06T12:27:11.839Z,55.24
2018-10-06T12:29:40.422Z,55.07
2018-10-06T12:32:08.846Z,54.09
2018-10-06T12:34:37.754Z,53.83
2018-10-06T12:37:06.185Z,53.78
2018-10-06T12:39:34.618Z,53.59
2018-10-06T12:42:03.333Z,53.46
2018-10-06T12:44:31.758Z,53.51
2018-10-06T12:47:00.172Z,53.54
2018-10-06T12:49:28.811Z,53.08
2018-10-06T12:51:57.231Z,52.69
2018-10-06T12:54:25.670Z,52.59
2018-10-06T12:56:54.547Z,52.19
2018-10-06T12:59:23.006Z,52.35
2018-10-06T13:01:51.430Z,52.25
2018-10-06T13:04:20.148Z,52.05
2018-10-06T13:06:48.603Z,52.26
2018-10-06T13:09:17.043Z,52.24
2018-10-06T13:11:46.079Z,52.47
2018-10-06T13:14:14.527Z,52.86
2018-10-06T13:16:43.011Z,52.95
2018-10-06T13:19:11.591Z,53.38
2018-10-06T13:21:40.139Z,53.55
2018-10-06T13:24:08.538Z,54.10
2018-10-06T13:26:38.454Z,54.51
2018-10-06T13:29:06.883Z,54.83
2018-10-06T13:31:35.328Z,55.26
2018-10-06T13:34:04.202Z,55.11
2018-10-06T13:36:32.590Z,55.23
2018-10-06T13:39:01.064Z,55.63
2018-10-06T13:41:29.978Z,55.21
2018-10-06T13:43:58.486Z,55.17
2018-10-06T13:46:27.003Z,54.96
2018-10-06T13:48:55.519Z,54.30
2018-10-06T13:51:23.942Z,54.67
2018-10-06T13:53:52.346Z,54.68
2018-10-06T13:56:21.199Z,55.08
2018-10-06T13:58:49.773Z,54.87
2018-10-06T14:01:18.155Z,54.91
2018-10-06T14:03:46.885Z,54.83
2018-10-06T14:06:18.213Z,54.79
2018-10-06T14:08:46.678Z,54.73
2018-10-06T14:11:21.823Z,54.50
2018-10-06T14:13:50.417Z,54.59
2018-10-06T14:16:18.859Z,54.42
2018-10-06T14:18:47.330Z,54.55
2018-10-06T14:21:15.871Z,54.45
2018-10-06T14:23:44.394Z,53.94
2018-10-06T14:26:12.890Z,53.93
2018-10-06T14:28:41.360Z,54.09
2018-10-06T14:31:09.762Z,54.20
2018-10-06T14:33:38.443Z,54.32
2018-10-06T14:36:08.272Z,53.79
2018-10-06T14:38:36.666Z,53.93
2018-10-06T14:41:05.461Z,54.12
2018-10-06T14:43:33.980Z,53.88
2018-10-06T14:46:02.386Z,53.73
2018-10-06T14:48:31.855Z,53.82
2018-10-06T14:51:00.411Z,53.14
2018-10-06T14:53:28.822Z,53.25
2018-10-06T14:55:57.539Z,52.90
2018-10-06T14:58:26.703Z,52.66
2018-10-06T15:00:55.227Z,52.82
2018-10-06T15:03:30.324Z,52.92
2018-10-06T15:05:58.762Z,52.86
2018-10-06T15:08:27.301Z,52.84
2018-10-06T15:10:55.837Z,52.85
2018-10-06T15:13:24.238Z,53.11
2018-10-06T15:15:52.848Z,53.09
2018-10-06T15:18:22.174Z,53.20
2018-10-06T15:20:50.584Z,53.13
2018-10-06T15:23:19.010Z,53.33
2018-10-06T15:25:47.615Z,53.28
2018-10-06T15:28:16.071Z,53.41
2018-10-06T15:30:44.550Z,53.07
2018-10-06T15:33:13.674Z,53.13
2018-10-06T15:35:42.086Z,53.56
2018-10-06T15:38:10.771Z,53.53
2018-10-06T15:40:39.544Z,53.61
2018-10-06T15:43:07.987Z,53.93
2018-10-06T15:45:36.458Z,54.05
2018-10-06T15:48:05.186Z,54.17
2018-10-06T15:50:33.601Z,54.29
2018-10-06T15:53:01.994Z,54.56
2018-10-06T15:55:30.648Z,54.31
2018-10-06T15:57:59.154Z,54.97
2018-10-06T16:00:27.851Z,54.94
2018-10-06T16:02:56.747Z,55.24
2018-10-06T16:05:25.118Z,55.32
2018-10-06T16:07:53.559Z,55.54
2018-10-06T16:10:22.179Z,55.59
2018-10-06T16:12:50.624Z,55.72
2018-10-06T16:15:19.098Z,55.94
2018-10-06T16:17:48.178Z,56.41
2018-10-06T16:20:16.583Z,56.47
2018-10-06T16:22:45.010Z,56.71
2018-10-06T16:25:13.659Z,57.00
2018-10-06T16:27:42.207Z,57.05
2018-10-06T16:30:10.661Z,57.22
2018-10-06T16:32:39.254Z,57.64
2018-10-06T16:35:07.991Z,57.88
2018-10-06T16:37:36.431Z,58.87
2018-10-06T16:40:05.834Z,58.73
2018-10-06T16:42:34.298Z,58.75
2018-10-06T16:45:02.819Z,59.20
2018-10-06T16:47:31.891Z,59.41
2018-10-06T16:50:00.337Z,59.73
2018-10-06T16:52:28.739Z,60.35
2018-10-06T16:54:57.271Z,60.35
2018-10-06T16:57:25.674Z,60.48
2018-10-06T16:59:54.162Z,60.32
2018-10-06T17:02:22.762Z,60.87
2018-10-06T17:04:51.174Z,60.90
2018-10-06T17:07:19.590Z,60.94
2018-10-06T17:09:48.535Z,60.98
2018-10-06T17:12:16.972Z,61.13
2018-10-06T17:14:45.342Z,61.51
2018-10-06T17:17:13.876Z,61.31
2018-10-06T17:19:43.622Z,61.48
2018-10-06T17:22:12.299Z,61.82
2018-10-06T17:24:40.938Z,61.67
2018-10-06T17:27:09.370Z,61.88
2018-10-06T17:29:37.906Z,61.61
2018-10-06T17:32:06.456Z,61.54
2018-10-06T17:34:34.967Z,61.92
2018-10-06T17:37:03.406Z,62.29
2018-10-06T17:39:31.966Z,62.37
2018-10-06T17:42:00.418Z,62.30
2018-10-06T17:44:29.032Z,62.39
2018-10-06T17:46:57.447Z,62.36
2018-10-06T17:49:25.857Z,62.36
2018-10-06T17:51:54.269Z,62.21
2018-10-06T17:54:22.926Z,62.71
2018-10-06T17:56:51.481Z,62.49
2018-10-06T17:59:19.875Z,62.43
2018-10-06T18:01:48.784Z,62.26
2018-10-06T18:04:17.510Z,62.48
2018-10-06T18:06:46.007Z,62.53
2018-10-06T18:09:14.710Z,62.46
2018-10-06T18:11:43.111Z,62.42
2018-10-06T18:14:11.514Z,62.40
2018-10-06T18:16:40.115Z,62.55
2018-10-06T18:19:08.520Z,62.90
2018-10-06T18:21:37.487Z,62.80
2018-10-06T18:24:05.996Z,62.65
2018-10-06T18:26:34.409Z,62.88
2018-10-06T18:29:02.918Z,62.88
2018-10-06T18:31:31.995Z,63.07
2018-10-06T18:34:00.497Z,63.27
2018-10-06T18:36:29.253Z,63.27
2018-10-06T18:38:57.679Z,63.17
2018-10-06T18:41:26.076Z,63.16
2018-10-06T18:43:54.771Z,63.10
2018-10-06T18:46:23.578Z,62.87
2018-10-06T18:48:52.107Z,63.15
2018-10-06T18:51:20.555Z,62.82
2018-10-06T18:53:49.822Z,63.43
2018-10-06T18:56:18.232Z,63.22
2018-10-06T18:58:46.812Z,63.29
2018-10-06T19:01:15.315Z,63.23
2018-10-06T19:03:43.850Z,63.21
2018-10-06T19:06:12.147Z,63.20
2018-10-06T19:08:40.834Z,63.28
2018-10-06T19:11:09.231Z,63.28
2018-10-06T19:13:37.648Z,63.43
2018-10-06T19:16:06.537Z,63.76
2018-10-06T19:18:34.938Z,63.73
2018-10-06T19:21:03.411Z,63.81
2018-10-06T19:23:32.138Z,64.12
2018-10-06T19:26:00.551Z,64.04
2018-10-06T19:28:28.967Z,64.08
2018-10-06T19:30:57.657Z,64.01
2018-10-06T19:33:26.289Z,64.31
2018-10-06T19:35:54.675Z,64.45
2018-10-06T19:38:23.199Z,64.35
2018-10-06T19:40:51.622Z,64.16
2018-10-06T19:43:20.023Z,64.58
2018-10-06T19:45:48.702Z,64.75
2018-10-06T19:48:17.038Z,64.60
2018-10-06T19:50:45.431Z,64.82
2018-10-06T19:53:14.267Z,64.57
2018-10-06T19:55:42.732Z,64.68
2018-10-06T19:58:11.157Z,65.06
2018-10-06T20:00:40.048Z,64.81
2018-10-06T20:03:08.443Z,65.07
2018-10-06T20:05:36.860Z,65.32
2018-10-06T20:08:05.809Z,65.24
2018-10-06T20:10:34.534Z,65.38
2018-10-06T20:13:02.935Z,65.24
2018-10-06T20:15:31.831Z,65.31
2018-10-06T20:18:00.242Z,65.09
2018-10-06T20:20:28.870Z,65.52
2018-10-06T20:22:57.686Z,65.17
2018-10-06T20:25:26.215Z,65.58
2018-10-06T20:27:54.614Z,65.25
2018-10-06T20:30:23.143Z,65.46
2018-10-06T20:32:52.495Z,65.43
2018-10-06T20:35:23.577Z,65.69
2018-10-06T20:37:54.006Z,65.62
2018-10-06T20:40:23.667Z,65.62
2018-10-06T20:42:53.830Z,65.58
2018-10-06T20:45:24.726Z,65.79
2018-10-06T20:47:53.131Z,65.85
2018-10-06T20:50:21.591Z,65.78
2018-10-06T20:52:50.402Z,65.97
2018-10-06T20:55:18.863Z,66.02
2018-10-06T20:57:47.458Z,66.22
2018-10-06T21:00:16.296Z,66.29
2018-10-06T21:02:44.710Z,66.22
2018-10-06T21:05:13.442Z,66.45
2018-10-06T21:07:42.252Z,66.61
2018-10-06T21:10:11.212Z,66.61
2018-10-06T21:12:40.195Z,66.84
2018-10-06T21:15:09.993Z,67.01
2018-10-06T21:17:39.991Z,66.84
2018-10-06T21:20:09.401Z,67.05
2018-10-06T21:22:38.418Z,67.05
2018-10-06T21:25:06.878Z,67.36
2018-10-06T21:27:35.450Z,67.71
2018-10-06T21:30:04.054Z,67.34
2018-10-06T21:32:32.439Z,67.70
2018-10-06T21:35:01.047Z,67.41
2018-10-06T21:37:29.797Z,67.72
2018-10-06T21:39:58.187Z,67.45
2018-10-06T21:42:26.614Z,67.47
2018-10-06T21:44:55.174Z,67.42
2018-10-06T21:47:23.614Z,67.37
2018-10-06T21:49:52.054Z,67.30
2018-10-06T21:52:20.595Z,67.45
2018-10-06T21:54:49.067Z,67.31
2018-10-06T21:57:17.488Z,67.30
2018-10-06T21:59:46.139Z,67.51
2018-10-06T22:02:14.590Z,67.52
2018-10-06T22:04:43.046Z,67.80
2018-10-06T22:07:11.910Z,67.87
2018-10-06T22:09:40.998Z,67.50
2018-10-06T22:12:09.518Z,67.52
2018-10-06T22:14:38.457Z,67.50
2018-10-06T22:17:06.922Z,67.76
2018-10-06T22:19:35.326Z,68.07
2018-10-06T22:22:04.335Z,67.69
2018-10-06T22:24:32.860Z,67.89
2018-10-06T22:27:01.300Z,67.87
2018-10-06T22:29:30.374Z,67.77
2018-10-06T22:31:58.779Z,67.72
2018-10-06T22:34:27.172Z,67.64
2018-10-06T22:36:56.120Z,67.57
2018-10-06T22:39:24.609Z,67.46
2018-10-06T22:41:53.010Z,67.52
2018-10-06T22:44:21.588Z,67.59
2018-10-06T22:46:50.035Z,67.31
2018-10-06T22:49:18.463Z,67.19
2018-10-06T22:51:46.986Z,67.23
2018-10-06T22:54:15.404Z,67.23
2018-10-06T22:56:43.940Z,67.10
2018-10-06T22:59:12.858Z,67.18
2018-10-06T23:01:41.287Z,67.39
2018-10-06T23:04:09.883Z,67.33
2018-10-06T23:06:38.444Z,67.67
2018-10-06T23:09:08.982Z,67.20
2018-10-06T23:11:37.479Z,67.38
2018-10-06T23:14:06.390Z,67.43
2018-10-06T23:16:34.843Z,67.75
2018-10-06T23:19:03.262Z,67.79
2018-10-06T23:21:31.818Z,67.37
2018-10-06T23:24:00.666Z,67.60
2018-10-06T23:26:29.155Z,67.38
2018-10-06T23:28:58.222Z,67.71
2018-10-06T23:31:27.066Z,67.68
2018-10-06T23:33:55.756Z,67.81
2018-10-06T23:36:24.254Z,67.97
2018-10-06T23:38:52.638Z,68.12
2018-10-06T23:41:21.153Z,68.15
2018-10-06T23:43:50.330Z,68.18
2018-10-06T23:46:18.754Z,68.18
2018-10-06T23:48:47.147Z,68.28
2018-10-06T23:51:15.700Z,68.29
2018-10-06T23:53:44.130Z,68.50
2018-10-06T23:56:12.531Z,68.48
2018-10-06T23:58:41.312Z,68.73
